Weather observations for the past three days for
Torrance, Zamperini Field Airport
| Date | Time (pdt) | Wind (kph) | Vis. (km) | Weather | Sky Cond. | Temperature (ºC) | Relative Humidity | Wind Chill (°C) | Heat Index (°C) | Pressure | Precipitation (cm) | ||||||
|---|---|---|---|---|---|---|---|---|---|---|---|---|---|---|---|---|---|
| Air | Dwpt | 6 hour | altimeter (cm) | sea level (mb) | 1 hr | 3 hr | 6 hr | ||||||||||
| Max. | Min. | ||||||||||||||||
| 09 | 11:52 | NW 11 | 14.48 | A Few Clouds | FEW010 | 21 | 15 | 69% | 76.05 | 0.0 | |||||||
| 09 | 10:50 | NW 6 | 11.27 | Fog/Mist | BKN017 | 19 | 14 | 73% | 76.07 | 0.0 | |||||||
| 09 | 09:48 | Calm | 9.66 | Fog/Mist | OVC013 | 18 | 14 | 78% | 76.05 | 0.0 | |||||||
| 09 | 08:47 | SE 6 | 9.66 | Fog/Mist | OVC012 | 17 | 14 | 83% | 76.07 | 0.0 | |||||||
| 09 | 06:54 | E 7 | 9.66 | Overcast | OVC010 | 16 | 14 | 88% | 76.05 | 0.0 | |||||||
| 08 | 19:47 | W 19 | 12.87 | Mostly Cloudy | BKN008 | 16 | 14 | 88% | 76.05 | 0.0 | |||||||
| 08 | 18:55 | W 24 | 16.09 | Mostly Cloudy | BKN007 | 17 | 14 | 83% | 76.02 | 0.0 | |||||||
| 08 | 17:49 | W 19 | 16.09 | Partly Cloudy | SCT007 | 18 | 15 | 83% | 76 | 0.0 | |||||||
| 08 | 16:50 | W 24 | 16.09 | Partly Cloudy | SCT007 | 19 | 14 | 73% | 76 | 0.0 | |||||||
| 08 | 15:47 | W 28 | 16.09 | Partly Cloudy | SCT009 | 20 | 14 | 69% | 76.05 | 0.0 | |||||||
| 08 | 14:50 | W 24 | 16.09 | Partly Cloudy | SCT010 | 21 | 15 | 69% | 76.1 | 0.0 | |||||||
| 08 | 13:59 | W 22 | 16.09 | A Few Clouds | FEW010 FEW022 | 21 | 14 | 64% | 76.12 | 0.0 | |||||||
| 08 | 12:52 | Vrbl 6 | 16.09 | Partly Cloudy | SCT016 | 21 | 14 | 64% | 76.17 | 0.0 | |||||||
| 08 | 11:47 | E 7 | 11.27 | Overcast | OVC016 | 19 | 14 | 73% | 76.23 | 0.0 | |||||||
| 08 | 10:48 | SE 7 | 11.27 | Overcast | OVC012 | 18 | 14 | 78% | 76.25 | 0.0 | |||||||
| 08 | 09:50 | SE 7 | 11.27 | Overcast | OVC012 | 17 | 14 | 83% | 76.25 | 0.0 | |||||||
| 08 | 08:47 | E 9 | 9.66 | Fog/Mist | OVC011 | 17 | 14 | 83% | 76.25 | 0.0 | |||||||
| 08 | 07:47 | E 7 | 9.66 | Fog/Mist | OVC011 | 16 | 14 | 88% | 76.25 | 0.0 | |||||||
| 08 | 06:50 | SE 7 | 8.05 | Fog/Mist | OVC011 | 16 | 14 | 88% | 76.23 | 0.0 | |||||||
| 07 | 19:47 | SW 9 | 16.09 | A Few Clouds | FEW009 | 17 | 13 | 77% | 76.1 | 0.0 | |||||||
| 07 | 18:47 | W 19 | 16.09 | A Few Clouds | FEW009 | 18 | 13 | 73% | 76.05 | 0.0 | |||||||
| 07 | 17:52 | W 22 | 16.09 | A Few Clouds | FEW009 | 19 | 14 | 73% | 76.05 | 0.0 | |||||||
| 07 | 16:50 | W 26 | 16.09 | Partly Cloudy | SCT007 | 19 | 14 | 73% | 76.05 | 0.0 | |||||||
| 07 | 15:48 | W 30 | 16.09 | Partly Cloudy | SCT010 | 21 | 14 | 64% | 76.05 | 0.0 | |||||||
| 07 | 14:50 | W 24 | 16.09 | Partly Cloudy | SCT010 | 22 | 14 | 61% | 76.07 | 0.0 | |||||||
| 07 | 13:47 | W 26 | 16.09 | A Few Clouds | FEW010 | 21 | 15 | 69% | 76.15 | 0.0 | |||||||
| 07 | 12:51 | W 19 | 16.09 | A Few Clouds | FEW010 | 22 | 15 | 65% | 76.17 | 0.0 | |||||||
| 07 | 11:47 | W 15 | 16.09 | A Few Clouds | FEW010 | 21 | 14 | 64% | 76.23 | 0.0 | |||||||
| 07 | 10:48 | W 13 | 16.09 | A Few Clouds | FEW010 | 21 | 14 | 64% | 76.23 | 0.0 | |||||||
| 07 | 09:47 | W 11 | 16.09 | A Few Clouds | FEW010 | 19 | 14 | 73% | 76.25 | 0.0 | |||||||
| 07 | 08:47 | W 7 | 16.09 | A Few Clouds | FEW010 | 18 | 13 | 73% | 76.28 | 0.0 | |||||||
| 07 | 07:47 | Calm | 16.09 | A Few Clouds | FEW010 | 17 | 13 | 77% | 76.28 | 0.0 | |||||||
| 07 | 06:47 | Calm | 16.09 | A Few Clouds | FEW010 FEW200 | 13 | 11 | 88% | 76.25 | 0.0 | |||||||
| 06 | 19:50 | W 19 | 16.09 | Clear | SKC | 16 | 13 | 83% | 76.25 | 0.0 | |||||||
| 06 | 18:50 | W 20 | 16.09 | Clear | SKC | 18 | 13 | 73% | 76.23 | 0.0 | |||||||
| 06 | 17:51 | W 24 | 16.09 | A Few Clouds | FEW010 | 19 | 13 | 68% | 76.2 | 0.0 | |||||||
| 06 | 16:50 | W 30 G 37 | 16.09 | Partly Cloudy | FEW010 SCT090 | 19 | 13 | 68% | 76.2 | 0.0 | |||||||
| 06 | 15:47 | W 28 G 39 | 16.09 | A Few Clouds | FEW026 | 20 | 13 | 64% | 76.23 | 0.0 | |||||||
| 06 | 14:52 | W 26 G 39 | 16.09 | A Few Clouds | FEW025 | 22 | 13 | 57% | 76.25 | 0.0 | |||||||
| 06 | 13:51 | W 22 | 16.09 | A Few Clouds | FEW025 | 21 | 11 | 53% | 76.3 | 0.0 | |||||||
| 06 | 12:47 | W 19 | 16.09 | A Few Clouds | FEW025 | 21 | 13 | 60% | 76.35 | 0.0 | |||||||
| Date | Time (pdt) | Wind (kph) | Vis. (km) | Weather | Sky Cond. | Air | Dwpt | Max. | Min. | Relative Humidity | Wind Chill (°C) | Heat Index (°C) | altimeter (cm) | sea level (mb) | 1 hr | 3 hr | 6 hr |
| 6 hour | |||||||||||||||||
| Temperature (ºC) | Pressure | Precipitation (cm) | |||||||||||||||